ESDF

Ronneby Airport

Sweden
METAR ESDF 222120Z AUTO 10004KT 9999 NCD 04/03 Q1015
Observed Flight Rules
Apr-22 @ 21:20 UTC (28 minutes ago) Visual Flight Rules
Wind Visibility Clouds
100° at 4 knots 10,000+ meters
  • Clear skies
Temperatures Readings
Current 4°C / 39°F
Dewpoint 3°C / 37°F
Humidity 93%
Altimeter 29.97" Hg
Pressure 1015 hPa
Elevation 74
METAR ESDF 222120Z AUTO 10004KT 9999 NCD 04/03 Q1015
Observed Flight Rules
Apr-22 @ 21:20 UTC
(28 minutes ago)
VFR
Wind Visibility
100° at 4 knots 10,000+ meters
Clouds
  • Clear skies
Temperature Dewpoint
4°C / 39°F 3°C / 37°F
Humidity Altimeter Pressure
93% 29.97" Hg 1015 hPa